createdAt,value
2023-03-12T00:00:49.867Z,99294.19
2023-03-12T00:03:17.849Z,99297.69
2023-03-12T00:05:45.952Z,99304.75
2023-03-12T00:08:13.615Z,99314.87
2023-03-12T00:10:41.236Z,99306.69
2023-03-12T00:13:09.053Z,99324.13
2023-03-12T00:15:38.319Z,99325.69
2023-03-12T00:18:06.092Z,99324.69
2023-03-12T00:20:33.689Z,99332.31
2023-03-12T00:23:01.111Z,99334.72
2023-03-12T00:25:28.737Z,99337.78
2023-03-12T00:27:56.496Z,99347.19
2023-03-12T00:30:23.893Z,99345.87
2023-03-12T00:32:51.616Z,99343.06
2023-03-12T00:35:19.005Z,99342.41
2023-03-12T00:37:46.430Z,99351.94
2023-03-12T00:40:14.177Z,99357.22
2023-03-12T00:42:41.611Z,99354.00
2023-03-12T00:45:09.287Z,99351.59
2023-03-12T00:47:36.951Z,99353.97
2023-03-12T00:50:04.799Z,99366.53
2023-03-12T00:52:32.211Z,99366.22
2023-03-12T00:54:59.845Z,99378.00
2023-03-12T00:57:28.036Z,99377.28
2023-03-12T00:59:55.453Z,99376.00
2023-03-12T01:02:23.144Z,99378.25
2023-03-12T01:04:50.496Z,99375.47
2023-03-12T01:07:17.833Z,99386.53
2023-03-12T01:09:45.478Z,99399.37
2023-03-12T01:12:12.811Z,99392.63
2023-03-12T01:14:40.160Z,99391.97
2023-03-12T01:17:08.576Z,99389.72
2023-03-12T01:19:36.248Z,99393.56
2023-03-12T01:22:04.340Z,99397.53
2023-03-12T01:24:32.292Z,99396.00
2023-03-12T01:26:59.721Z,99397.88
2023-03-12T01:29:27.115Z,99406.37
2023-03-12T01:31:54.766Z,99407.56
2023-03-12T01:34:22.282Z,99414.34
2023-03-12T01:36:49.638Z,99410.00
2023-03-12T01:39:17.315Z,99406.50
2023-03-12T01:41:44.699Z,99409.09
2023-03-12T01:44:14.612Z,99419.78
2023-03-12T01:46:44.161Z,99416.25
2023-03-12T01:49:23.442Z,99415.44
2023-03-12T01:52:00.029Z,99414.87
2023-03-12T01:54:33.373Z,99420.34
2023-03-12T01:57:03.412Z,99418.69
2023-03-12T01:59:38.284Z,99418.50
2023-03-12T02:02:06.588Z,99420.00
2023-03-12T02:04:34.847Z,99429.09
2023-03-12T02:07:02.208Z,99432.91
2023-03-12T02:09:33.826Z,99432.41
2023-03-12T02:12:01.606Z,99435.78
2023-03-12T02:14:29.247Z,99441.66
2023-03-12T02:16:57.724Z,99455.09
2023-03-12T02:19:50.171Z,99456.16
2023-03-12T02:22:18.185Z,99459.44
2023-03-12T02:25:04.501Z,99461.25
2023-03-12T02:27:34.328Z,99465.63
2023-03-12T02:30:03.307Z,99466.22
2023-03-12T02:32:35.298Z,99470.72
2023-03-12T02:35:04.464Z,99467.00
2023-03-12T02:37:32.527Z,99467.78
2023-03-12T02:40:08.598Z,99466.91
2023-03-12T02:42:36.405Z,99472.28
2023-03-12T02:45:04.014Z,99472.81
2023-03-12T02:47:31.482Z,99478.72
2023-03-12T02:49:59.101Z,99485.84
2023-03-12T02:52:26.451Z,99484.72
2023-03-12T02:54:54.314Z,99484.31
2023-03-12T02:57:22.088Z,99497.28
2023-03-12T02:59:49.552Z,99500.06
2023-03-12T03:02:16.986Z,99514.81
2023-03-12T03:04:44.777Z,99509.91
2023-03-12T03:07:12.213Z,99519.78
2023-03-12T03:09:39.625Z,99532.50
2023-03-12T03:12:08.006Z,99540.16
2023-03-12T03:14:35.946Z,99548.91
2023-03-12T03:17:04.556Z,99543.87
2023-03-12T03:19:32.230Z,99538.59
2023-03-12T03:21:59.614Z,99545.66
2023-03-12T03:24:27.064Z,99551.66
2023-03-12T03:26:54.776Z,99560.84
2023-03-12T03:29:22.189Z,99554.03
2023-03-12T03:31:49.726Z,99557.41
2023-03-12T03:34:17.436Z,99560.94
2023-03-12T03:36:44.790Z,99575.72
2023-03-12T03:39:12.515Z,99573.03
2023-03-12T03:41:40.269Z,99583.03
2023-03-12T03:44:08.055Z,99578.41
2023-03-12T03:46:35.960Z,99574.59
2023-03-12T03:49:04.373Z,99572.53
2023-03-12T03:51:32.812Z,99571.69
2023-03-12T03:54:00.707Z,99583.28
2023-03-12T03:56:28.704Z,99583.91
2023-03-12T03:58:58.302Z,99581.81
2023-03-12T04:01:26.201Z,99580.13
2023-03-12T04:03:55.322Z,99575.34
2023-03-12T04:06:22.702Z,99575.19
2023-03-12T04:08:50.411Z,99590.19
2023-03-12T04:11:21.069Z,99592.09
2023-03-12T04:13:49.683Z,99597.16
2023-03-12T04:16:18.201Z,99606.06
2023-03-12T04:18:46.334Z,99606.41
2023-03-12T04:21:14.884Z,99606.75
2023-03-12T04:23:42.450Z,99611.69
2023-03-12T04:26:10.383Z,99614.50
2023-03-12T04:28:38.310Z,99627.44
2023-03-12T04:31:07.699Z,99631.78
2023-03-12T04:33:37.573Z,99633.91
2023-03-12T04:36:05.537Z,99655.56
2023-03-12T04:38:33.671Z,99664.41
2023-03-12T04:41:04.072Z,99661.28
2023-03-12T04:43:32.134Z,99672.66
2023-03-12T04:46:00.005Z,99671.56
2023-03-12T04:48:28.263Z,99670.03
2023-03-12T04:50:55.755Z,99688.53
2023-03-12T04:53:24.152Z,99676.16
2023-03-12T04:55:52.489Z,99673.87
2023-03-12T04:58:20.707Z,99685.97
2023-03-12T05:00:49.393Z,99690.06
2023-03-12T05:03:18.121Z,99687.19
2023-03-12T05:05:45.907Z,99695.59
2023-03-12T05:08:13.570Z,99699.28
2023-03-12T05:10:41.414Z,99696.50
2023-03-12T05:13:26.752Z,99685.44
2023-03-12T05:15:55.206Z,99693.12
2023-03-12T05:18:22.781Z,99694.47
2023-03-12T05:21:00.017Z,99700.25
2023-03-12T05:23:28.346Z,99698.53
2023-03-12T05:25:55.771Z,99700.84
2023-03-12T05:28:27.776Z,99707.44
2023-03-12T05:30:56.016Z,99705.31
2023-03-12T05:33:24.261Z,99713.94
2023-03-12T05:35:51.756Z,99721.97
2023-03-12T05:38:19.707Z,99725.34
2023-03-12T05:40:54.782Z,99723.06
2023-03-12T05:43:23.454Z,99729.56
2023-03-12T05:45:51.260Z,99729.25
2023-03-12T05:48:19.950Z,99733.38
2023-03-12T05:50:49.496Z,99740.75
2023-03-12T05:53:16.918Z,99745.88
2023-03-12T05:55:44.362Z,99746.44
2023-03-12T05:58:13.125Z,99761.09
2023-03-12T06:00:41.700Z,99758.34
2023-03-12T06:03:10.109Z,99763.78
2023-03-12T06:05:38.157Z,99756.09
2023-03-12T06:08:06.609Z,99760.88
2023-03-12T06:10:34.394Z,99764.25
2023-03-12T06:13:01.952Z,99774.41
2023-03-12T06:15:29.393Z,99780.84
2023-03-12T06:17:57.156Z,99788.47
2023-03-12T06:20:24.518Z,99789.38
2023-03-12T06:22:51.989Z,99800.59
2023-03-12T06:25:19.639Z,99803.44
2023-03-12T06:27:47.393Z,99798.97
2023-03-12T06:30:15.301Z,99791.47
2023-03-12T06:32:42.988Z,99797.41
2023-03-12T06:35:10.496Z,99813.47
2023-03-12T06:37:37.893Z,99814.28
2023-03-12T06:40:09.802Z,99819.00
2023-03-12T06:42:37.387Z,99822.28
2023-03-12T06:45:05.828Z,99824.53
2023-03-12T06:47:33.188Z,99826.00
2023-03-12T06:50:00.573Z,99829.78
2023-03-12T06:52:28.410Z,99829.78
2023-03-12T06:54:55.830Z,99828.31
2023-03-12T06:57:23.205Z,99831.31
2023-03-12T06:59:51.566Z,99832.00
2023-03-12T07:02:19.033Z,99832.91
2023-03-12T07:04:46.779Z,99839.38
2023-03-12T07:07:14.505Z,99842.25
2023-03-12T07:09:41.906Z,99839.66
2023-03-12T07:12:09.484Z,99841.50
2023-03-12T07:14:37.141Z,99856.28
2023-03-12T07:17:04.738Z,99849.50
2023-03-12T07:19:32.214Z,99853.03
2023-03-12T07:21:59.957Z,99860.66
2023-03-12T07:24:27.408Z,99851.84
2023-03-12T07:26:54.950Z,99857.44
2023-03-12T07:29:22.578Z,99852.91
2023-03-12T07:31:50.185Z,99851.34
2023-03-12T07:34:17.716Z,99857.56
2023-03-12T07:36:45.575Z,99861.66
2023-03-12T07:39:13.350Z,99846.94
2023-03-12T07:41:40.843Z,99866.19
2023-03-12T07:44:10.907Z,99862.53
2023-03-12T07:46:38.710Z,99871.44
2023-03-12T07:49:06.076Z,99860.38
2023-03-12T07:51:33.749Z,99866.91
2023-03-12T07:54:01.126Z,99869.06
2023-03-12T07:56:28.635Z,99876.34
2023-03-12T07:58:56.516Z,99877.41
2023-03-12T08:01:25.447Z,99874.47
2023-03-12T08:03:53.200Z,99878.69
2023-03-12T08:06:21.744Z,99879.44
2023-03-12T08:08:49.216Z,99883.84
2023-03-12T08:11:16.983Z,99879.22
2023-03-12T08:13:44.448Z,99881.81
2023-03-12T08:16:12.220Z,99879.37
2023-03-12T08:18:40.028Z,99876.91
2023-03-12T08:21:07.454Z,99884.59
2023-03-12T08:23:35.674Z,99890.34
2023-03-12T08:26:03.338Z,99885.19
2023-03-12T08:28:30.909Z,99887.81
2023-03-12T08:30:59.793Z,99884.72
2023-03-12T08:33:27.554Z,99892.91
2023-03-12T08:35:55.091Z,99893.22
2023-03-12T08:38:22.915Z,99899.81
2023-03-12T08:41:00.429Z,99890.00
2023-03-12T08:43:29.435Z,99895.28
2023-03-12T08:45:58.902Z,99901.56
2023-03-12T08:48:26.899Z,99895.25
2023-03-12T08:50:58.350Z,99899.84
2023-03-12T08:53:26.793Z,99890.69
2023-03-12T08:55:54.839Z,99880.19
2023-03-12T08:58:23.399Z,99883.41
2023-03-12T09:00:52.004Z,99887.25
2023-03-12T09:03:21.582Z,99878.00
2023-03-12T09:05:49.847Z,99886.44
2023-03-12T09:08:17.677Z,99883.91
2023-03-12T09:10:50.171Z,99879.69
2023-03-12T09:13:17.861Z,99881.16
2023-03-12T09:15:45.214Z,99880.13
2023-03-12T09:18:12.720Z,99876.88
2023-03-12T09:20:42.588Z,99882.16
2023-03-12T09:23:10.213Z,99874.38
2023-03-12T09:25:37.790Z,99886.06
2023-03-12T09:28:05.468Z,99886.25
2023-03-12T09:30:33.113Z,99887.84
2023-03-12T09:33:00.530Z,99884.69
2023-03-12T09:35:28.197Z,99878.06
2023-03-12T09:37:55.513Z,99879.03
2023-03-12T09:40:25.775Z,99888.59
2023-03-12T09:42:57.549Z,99883.84
2023-03-12T09:45:27.599Z,99886.78
2023-03-12T09:47:57.775Z,99887.84
2023-03-12T09:50:29.556Z,99889.88
2023-03-12T09:53:11.417Z,99886.53
2023-03-12T09:55:41.352Z,99880.94
2023-03-12T09:58:34.627Z,99885.16
2023-03-12T10:01:29.289Z,99875.00
2023-03-12T10:04:12.321Z,99876.06
2023-03-12T10:06:55.559Z,99873.53
2023-03-12T10:09:23.203Z,99873.56
2023-03-12T10:12:32.067Z,99884.00
2023-03-12T10:15:17.990Z,99884.22
2023-03-12T10:18:30.757Z,99875.22
2023-03-12T10:21:01.030Z,99889.75
2023-03-12T10:24:10.116Z,99878.59
2023-03-12T10:26:43.506Z,99877.00
2023-03-12T10:29:24.560Z,99885.81
2023-03-12T10:31:59.736Z,99886.44
2023-03-12T10:34:53.036Z,99891.25
2023-03-12T10:37:26.500Z,99882.16
2023-03-12T10:40:00.208Z,99895.84
2023-03-12T10:42:30.050Z,99894.50
2023-03-12T10:45:10.991Z,99891.16
2023-03-12T10:47:40.754Z,99891.19
2023-03-12T10:50:17.390Z,99902.31
2023-03-12T10:52:46.827Z,99894.69
2023-03-12T10:55:21.032Z,99899.16
2023-03-12T10:57:49.585Z,99899.03
2023-03-12T11:00:26.005Z,99900.69
2023-03-12T11:02:56.396Z,99900.91
2023-03-12T11:05:27.168Z,99903.38
2023-03-12T11:07:54.917Z,99893.97
2023-03-12T11:10:24.676Z,99892.19
2023-03-12T11:12:58.213Z,99890.62
2023-03-12T11:15:28.839Z,99894.19
2023-03-12T11:18:18.019Z,99887.22
2023-03-12T11:20:46.087Z,99898.34
2023-03-12T11:23:20.572Z,99893.19
2023-03-12T11:25:56.739Z,99895.03
2023-03-12T11:28:28.658Z,99893.31
2023-03-12T11:30:58.167Z,99900.09
2023-03-12T11:33:26.005Z,99895.88
2023-03-12T11:35:58.566Z,99891.59
2023-03-12T11:38:40.481Z,99881.25
2023-03-12T11:41:23.193Z,99900.25
2023-03-12T11:43:59.825Z,99894.19
2023-03-12T11:46:31.683Z,99879.50
2023-03-12T11:49:11.867Z,99885.56
2023-03-12T11:52:10.457Z,99882.97
2023-03-12T11:55:03.041Z,99887.28
2023-03-12T11:57:58.797Z,99878.63
2023-03-12T12:00:35.335Z,99875.12
2023-03-12T12:03:28.127Z,99879.41
2023-03-12T12:06:02.348Z,99869.78
2023-03-12T12:08:39.642Z,99868.03
2023-03-12T12:11:13.080Z,99862.03
2023-03-12T12:13:52.852Z,99863.75
2023-03-12T12:16:28.970Z,99861.97
2023-03-12T12:19:18.285Z,99851.63
2023-03-12T12:21:51.724Z,99850.81
2023-03-12T12:25:07.583Z,99850.00
2023-03-12T12:28:23.537Z,99860.41
2023-03-12T12:31:15.570Z,99842.19
2023-03-12T12:33:52.577Z,99843.03
2023-03-12T12:36:20.257Z,99842.06
2023-03-12T12:38:54.177Z,99836.84
2023-03-12T12:41:26.426Z,99831.69
2023-03-12T12:44:05.674Z,99847.31
2023-03-12T12:46:40.074Z,99843.00
2023-03-12T12:49:13.917Z,99838.69
2023-03-12T12:51:48.209Z,99840.41
2023-03-12T12:54:27.748Z,99843.91
2023-03-12T12:57:04.156Z,99839.56
2023-03-12T12:59:41.066Z,99843.94
2023-03-12T13:02:21.063Z,99836.09
2023-03-12T13:04:48.878Z,99836.06
2023-03-12T13:07:16.428Z,99835.16
2023-03-12T13:09:50.701Z,99844.78
2023-03-12T13:12:20.558Z,99831.75
2023-03-12T13:14:48.908Z,99834.34
2023-03-12T13:17:35.307Z,99835.19
2023-03-12T13:20:12.047Z,99836.09
2023-03-12T13:23:14.429Z,99829.09
2023-03-12T13:26:08.929Z,99834.28
2023-03-12T13:29:11.389Z,99839.50
2023-03-12T13:31:42.248Z,99847.38
2023-03-12T13:34:12.826Z,99846.53
2023-03-12T13:36:40.519Z,99843.91
2023-03-12T13:39:07.828Z,99846.47
2023-03-12T13:41:49.846Z,99849.06
2023-03-12T13:44:23.402Z,99849.94
2023-03-12T13:47:12.149Z,99853.47
2023-03-12T13:49:51.476Z,99856.03
2023-03-12T13:52:27.360Z,99853.47
2023-03-12T13:55:28.661Z,99856.91
2023-03-12T13:58:23.354Z,99854.25
2023-03-12T14:01:05.969Z,99854.25
2023-03-12T14:03:40.599Z,99853.38
2023-03-12T14:06:13.151Z,99863.00
2023-03-12T14:09:01.450Z,99857.78
2023-03-12T14:11:55.051Z,99850.88
2023-03-12T14:14:36.809Z,99855.97
2023-03-12T14:17:05.696Z,99851.63
2023-03-12T14:19:35.120Z,99849.09
2023-03-12T14:22:05.725Z,99849.09
2023-03-12T14:24:37.331Z,99855.19
2023-03-12T14:27:06.227Z,99858.59
2023-03-12T14:29:39.557Z,99858.66
2023-03-12T14:32:23.155Z,99864.72
2023-03-12T14:34:58.894Z,99859.53
2023-03-12T14:37:31.055Z,99862.97
2023-03-12T14:40:00.702Z,99860.41
2023-03-12T14:42:31.628Z,99854.34
2023-03-12T14:45:01.568Z,99853.41
2023-03-12T14:47:29.059Z,99860.41
2023-03-12T14:49:57.748Z,99861.28
2023-03-12T14:52:30.586Z,99857.81
2023-03-12T14:54:57.876Z,99851.75
2023-03-12T14:57:25.912Z,99858.66
2023-03-12T14:59:55.385Z,99860.41
2023-03-12T15:02:23.556Z,99863.03
2023-03-12T15:04:55.263Z,99863.91
2023-03-12T15:07:31.467Z,99869.09
2023-03-12T15:09:59.378Z,99874.31
2023-03-12T15:12:31.385Z,99870.81
2023-03-12T15:15:07.282Z,99877.75
2023-03-12T15:17:35.042Z,99876.88
2023-03-12T15:20:10.444Z,99881.22
2023-03-12T15:22:38.480Z,99872.56
2023-03-12T15:25:25.288Z,99885.56
2023-03-12T15:28:24.429Z,99885.53
2023-03-12T15:31:12.329Z,99894.22
2023-03-12T15:33:40.897Z,99889.91
2023-03-12T15:36:14.949Z,99889.91
2023-03-12T15:38:51.006Z,99892.50
2023-03-12T15:41:22.357Z,99895.94
2023-03-12T15:43:53.041Z,99895.78
2023-03-12T15:46:20.934Z,99896.63
2023-03-12T15:48:51.114Z,99896.78
2023-03-12T15:51:35.071Z,99893.31
2023-03-12T15:54:24.490Z,99895.06
2023-03-12T15:56:51.877Z,99899.41
2023-03-12T15:59:27.134Z,99898.50
2023-03-12T16:01:56.563Z,99901.16
2023-03-12T16:04:24.600Z,99899.44
2023-03-12T16:06:53.454Z,99904.66
2023-03-12T16:09:24.580Z,99897.72
2023-03-12T16:11:54.050Z,99897.69
2023-03-12T16:14:24.853Z,99906.38
2023-03-12T16:16:53.161Z,99907.25
2023-03-12T16:19:22.745Z,99910.72
2023-03-12T16:21:50.403Z,99905.50
2023-03-12T16:24:18.120Z,99906.38
2023-03-12T16:26:52.692Z,99911.56
2023-03-12T16:29:21.344Z,99915.94
2023-03-12T16:31:55.135Z,99911.56
2023-03-12T16:34:23.150Z,99918.50
2023-03-12T16:36:50.906Z,99911.59
2023-03-12T16:39:19.060Z,99924.56
2023-03-12T16:41:47.235Z,99921.94
2023-03-12T16:44:19.201Z,99923.69
2023-03-12T16:46:47.318Z,99930.59
2023-03-12T16:49:16.972Z,99934.09
2023-03-12T16:51:44.389Z,99931.47
2023-03-12T16:54:12.668Z,99936.66
2023-03-12T16:56:45.395Z,99934.94
2023-03-12T16:59:25.859Z,99936.59
2023-03-12T17:01:53.502Z,99939.97
2023-03-12T17:04:21.232Z,99951.31
2023-03-12T17:06:48.647Z,99949.50
2023-03-12T17:09:16.030Z,99957.28
2023-03-12T17:11:43.675Z,99959.00
2023-03-12T17:14:18.139Z,99957.22
2023-03-12T17:16:45.847Z,99974.47
2023-03-12T17:19:13.557Z,99969.28
2023-03-12T17:21:41.211Z,99968.28
2023-03-12T17:24:11.107Z,99967.34
2023-03-12T17:26:38.526Z,99965.66
2023-03-12T17:29:05.970Z,99968.97
2023-03-12T17:31:33.681Z,99967.22
2023-03-12T17:34:03.812Z,99966.38
2023-03-12T17:36:31.325Z,99962.84
2023-03-12T17:38:59.038Z,99961.84
2023-03-12T17:41:27.393Z,99960.84
2023-03-12T17:43:55.342Z,99962.59
2023-03-12T17:46:23.172Z,99971.25
2023-03-12T17:48:50.597Z,99971.25
2023-03-12T17:51:17.993Z,99968.56
2023-03-12T17:53:46.428Z,99966.78
2023-03-12T17:56:15.562Z,99974.44
2023-03-12T17:58:43.416Z,99962.25
2023-03-12T18:01:12.695Z,99957.13
2023-03-12T18:03:42.784Z,99963.75
2023-03-12T18:06:11.060Z,99971.56
2023-03-12T18:08:38.663Z,99970.50
2023-03-12T18:11:06.491Z,99966.16
2023-03-12T18:13:33.887Z,99959.12
2023-03-12T18:16:01.368Z,99972.00
2023-03-12T18:18:29.217Z,99970.25
2023-03-12T18:20:57.067Z,99976.25
2023-03-12T18:23:25.511Z,99981.34
2023-03-12T18:25:53.178Z,99980.28
2023-03-12T18:28:20.942Z,99991.41
2023-03-12T18:30:48.685Z,99992.50
2023-03-12T18:33:16.875Z,99989.56
2023-03-12T18:35:44.446Z,99996.41
2023-03-12T18:38:12.159Z,99996.34
2023-03-12T18:40:39.820Z,99999.75
2023-03-12T18:43:07.216Z,100002.41
2023-03-12T18:45:34.609Z,100007.25
2023-03-12T18:48:02.367Z,100008.00
2023-03-12T18:50:29.793Z,100009.78
2023-03-12T18:52:57.219Z,100009.72
2023-03-12T18:55:24.887Z,100016.44
2023-03-12T18:57:52.561Z,100018.22
2023-03-12T19:00:20.115Z,100019.72
2023-03-12T19:02:48.459Z,100014.53
2023-03-12T19:05:16.436Z,100015.50
2023-03-12T19:07:43.970Z,100017.03
2023-03-12T19:10:12.572Z,100026.34
2023-03-12T19:12:51.723Z,100019.63
2023-03-12T19:15:22.151Z,100010.84
2023-03-12T19:17:49.925Z,100009.94
2023-03-12T19:20:17.545Z,100007.13
2023-03-12T19:22:45.291Z,99999.47
2023-03-12T19:25:12.685Z,99995.09
2023-03-12T19:27:40.020Z,100011.03
2023-03-12T19:30:08.444Z,100013.59
2023-03-12T19:32:43.312Z,100018.81
2023-03-12T19:35:13.130Z,100032.53
2023-03-12T19:37:40.972Z,100027.03
2023-03-12T19:40:10.567Z,100027.00
2023-03-12T19:42:38.375Z,100033.81
2023-03-12T19:45:06.282Z,100040.37
2023-03-12T19:47:33.721Z,100050.53
2023-03-12T19:50:01.352Z,100056.59
2023-03-12T19:52:29.070Z,100047.25
2023-03-12T19:55:04.304Z,100058.91
2023-03-12T19:57:33.783Z,100054.63
2023-03-12T20:00:01.560Z,100045.59
2023-03-12T20:02:32.062Z,100050.03
2023-03-12T20:04:59.776Z,100050.81
2023-03-12T20:07:27.290Z,100048.06
2023-03-12T20:09:54.708Z,100056.31
2023-03-12T20:12:22.486Z,100056.16
2023-03-12T20:14:49.904Z,100058.81
2023-03-12T20:17:17.347Z,100048.56
2023-03-12T20:19:45.055Z,100044.31
2023-03-12T20:22:12.549Z,100046.09
2023-03-12T20:24:39.973Z,100044.31
2023-03-12T20:27:07.668Z,100044.13
2023-03-12T20:29:35.299Z,100050.87
2023-03-12T20:32:02.870Z,100065.16
2023-03-12T20:34:30.517Z,100066.66
2023-03-12T20:36:58.274Z,100067.84
2023-03-12T20:39:25.677Z,100061.19
2023-03-12T20:41:53.420Z,100048.28
2023-03-12T20:44:20.797Z,100043.69
2023-03-12T20:46:48.237Z,100045.50
2023-03-12T20:49:16.181Z,100046.81
2023-03-12T20:51:44.692Z,100062.12
2023-03-12T20:54:12.337Z,100061.22
2023-03-12T20:56:45.956Z,100078.22
2023-03-12T20:59:13.334Z,100075.47
2023-03-12T21:01:41.064Z,100071.28
2023-03-12T21:04:08.614Z,100082.59
2023-03-12T21:06:36.124Z,100083.69
2023-03-12T21:09:04.014Z,100073.38
2023-03-12T21:11:32.156Z,100074.19
2023-03-12T21:13:59.616Z,100073.28
2023-03-12T21:16:30.886Z,100064.44
2023-03-12T21:18:58.350Z,100074.37
2023-03-12T21:21:25.878Z,100063.50
2023-03-12T21:23:53.650Z,100061.16
2023-03-12T21:26:21.894Z,100061.41
2023-03-12T21:28:49.318Z,100066.44
2023-03-12T21:31:17.699Z,100063.94
2023-03-12T21:33:45.307Z,100069.00
2023-03-12T21:36:14.249Z,100070.00
2023-03-12T21:38:43.086Z,100061.06
2023-03-12T21:41:12.678Z,100062.12
2023-03-12T21:43:40.631Z,100059.62
2023-03-12T21:46:13.461Z,100050.31
2023-03-12T21:48:44.245Z,100047.91
2023-03-12T21:51:13.579Z,100049.06
2023-03-12T21:53:41.073Z,100051.31
2023-03-12T21:56:08.741Z,100050.75
2023-03-12T21:58:36.494Z,100052.94
2023-03-12T22:01:09.038Z,100057.53
2023-03-12T22:03:37.439Z,100057.72
2023-03-12T22:06:05.513Z,100052.94
2023-03-12T22:08:33.701Z,100045.50
2023-03-12T22:11:01.443Z,100039.00
2023-03-12T22:13:28.849Z,100035.69
2023-03-12T22:15:58.626Z,100044.16
2023-03-12T22:18:27.335Z,100038.50
2023-03-12T22:20:56.365Z,100039.56
2023-03-12T22:23:25.011Z,100044.78
2023-03-12T22:25:52.637Z,100036.31
2023-03-12T22:28:20.270Z,100042.16
2023-03-12T22:30:47.996Z,100037.19
2023-03-12T22:33:15.680Z,100030.31
2023-03-12T22:35:44.894Z,100018.69
2023-03-12T22:38:12.696Z,100021.81
2023-03-12T22:40:42.335Z,100020.81
2023-03-12T22:43:13.388Z,100028.78
2023-03-12T22:45:41.101Z,100025.41
2023-03-12T22:48:09.497Z,100026.19
2023-03-12T22:50:36.832Z,100026.19
2023-03-12T22:53:04.594Z,100033.19
2023-03-12T22:55:32.084Z,100041.53
2023-03-12T22:57:59.474Z,100047.47
2023-03-12T23:00:27.216Z,100041.78
2023-03-12T23:02:54.611Z,100046.19
2023-03-12T23:05:22.004Z,100044.19
2023-03-12T23:07:49.931Z,100049.72
2023-03-12T23:10:17.298Z,100054.25
2023-03-12T23:12:44.724Z,100069.91
2023-03-12T23:15:12.403Z,100077.06
2023-03-12T23:17:39.857Z,100083.34
2023-03-12T23:20:09.018Z,100083.59
2023-03-12T23:22:36.675Z,100091.28
2023-03-12T23:25:04.726Z,100085.34
2023-03-12T23:27:32.261Z,100087.19
2023-03-12T23:29:59.943Z,100084.63
2023-03-12T23:32:27.393Z,100092.28
2023-03-12T23:34:54.753Z,100102.84
2023-03-12T23:37:22.502Z,100091.72
2023-03-12T23:39:54.942Z,100096.06
2023-03-12T23:42:22.909Z,100103.03
2023-03-12T23:44:50.331Z,100107.34
2023-03-12T23:47:17.688Z,100108.16
2023-03-12T23:49:45.358Z,100104.75
2023-03-12T23:52:12.796Z,100104.00
2023-03-12T23:54:40.195Z,100103.09
2023-03-12T23:57:07.887Z,100116.88
2023-03-12T23:59:35.457Z,100118.63
